Time;durP1;ratioP1;P1;durP2;ratioP2;P2;SDS_P1;SDS_P2;PMS_P1;PMS_P2;Temp;Humidity;BMP_temperature;BMP_pressure;BME280_temperature;BME280_humidity;BME280_pressure;Samples;Min_cycle;Max_cycle;Signal;HPM_P1;HPM_P2
2022/07/19 00:01:18;;;;;;;10.00;9.00;;;16.50;99.90;;;;;;21001735;28;20070;-58
2022/07/19 00:11:21;;;;;;;11.48;9.60;;;16.30;99.90;;;;;;21052479;28;20040;-57
2022/07/19 00:21:23;;;;;;;10.20;8.60;;;16.20;99.90;;;;;;21052146;28;20481;-58
2022/07/19 00:31:25;;;;;;;10.45;9.10;;;16.00;99.90;;;;;;21052709;28;20036;-58
2022/07/19 00:41:28;;;;;;;10.43;8.55;;;16.10;99.90;;;;;;21050875;28;20040;-58
2022/07/19 00:51:34;;;;;;;12.50;9.40;;;16.10;99.90;;;;;;20979609;28;20032;-58
2022/07/19 01:01:37;;;;;;;11.25;8.70;;;16.30;99.90;;;;;;20981888;28;20106;-57
2022/07/19 01:11:40;;;;;;;14.75;9.75;;;16.20;99.90;;;;;;20982275;28;20452;-56
2022/07/19 01:21:42;;;;;;;9.95;8.95;;;16.10;99.90;;;;;;20979286;28;20032;-58
2022/07/19 01:31:45;;;;;;;10.90;9.77;;;16.20;99.90;;;;;;21064198;28;20097;-55
2022/07/19 01:41:48;;;;;;;10.45;9.38;;;16.50;99.90;;;;;;21063986;28;20043;-58
2022/07/19 01:51:50;;;;;;;11.52;9.20;;;16.60;99.90;;;;;;21063187;28;20089;-58
2022/07/19 02:01:52;;;;;;;9.88;8.55;;;16.40;99.90;;;;;;21000538;28;20501;-57
2022/07/19 02:11:55;;;;;;;8.45;6.60;;;16.30;99.90;;;;;;20976395;28;20489;-58
2022/07/19 02:21:57;;;;;;;6.68;4.72;;;16.20;99.90;;;;;;20976899;28;20112;-58
2022/07/19 02:32:00;;;;;;;4.28;3.70;;;16.20;99.90;;;;;;20976336;28;20028;-56
2022/07/19 02:42:03;;;;;;;3.70;2.90;;;16.30;99.90;;;;;;20975556;28;20037;-58
2022/07/19 02:52:05;;;;;;;3.47;2.25;;;16.20;99.90;;;;;;21050616;28;20040;-56
2022/07/19 03:02:07;;;;;;;4.68;2.10;;;16.10;99.50;;;;;;21057349;28;20093;-58
2022/07/19 03:12:10;;;;;;;3.08;2.50;;;16.10;98.90;;;;;;21056283;28;20481;-57
2022/07/19 03:22:12;;;;;;;3.08;1.90;;;15.90;98.70;;;;;;21046900;28;20032;-57
2022/07/19 03:32:15;;;;;;;3.05;2.15;;;15.90;98.40;;;;;;20971396;28;20044;-58
2022/07/19 03:42:17;;;;;;;4.05;2.40;;;15.90;99.10;;;;;;20970668;28;20037;-56
2022/07/19 03:52:20;;;;;;;5.45;2.40;;;16.00;99.10;;;;;;20970145;28;20032;-57
2022/07/19 04:02:22;;;;;;;3.70;2.60;;;16.50;99.00;;;;;;21035680;28;20027;-58
2022/07/19 04:12:24;;;;;;;5.90;2.95;;;16.80;99.30;;;;;;21052603;28;20085;-55
2022/07/19 04:22:26;;;;;;;4.20;2.50;;;16.80;99.20;;;;;;21051784;28;20097;-58
2022/07/19 04:32:29;;;;;;;3.20;2.72;;;17.10;99.00;;;;;;21050337;28;20133;-58
2022/07/19 04:42:32;;;;;;;3.28;2.47;;;17.20;99.50;;;;;;21067229;28;20062;-58
2022/07/19 04:52:35;;;;;;;3.10;2.80;;;17.10;99.80;;;;;;20969506;28;20037;-58
2022/07/19 05:02:37;;;;;;;3.00;2.63;;;16.90;99.90;;;;;;20966449;28;20037;-58
2022/07/19 05:12:40;;;;;;;3.70;2.65;;;16.70;99.90;;;;;;20965311;28;20401;-56
2022/07/19 05:22:43;;;;;;;6.47;3.00;;;16.70;99.90;;;;;;20978674;28;20036;-58
2022/07/19 05:32:46;;;;;;;3.40;2.83;;;16.70;99.90;;;;;;21048975;28;20085;-58
2022/07/19 05:42:49;;;;;;;4.15;2.83;;;16.70;99.90;;;;;;21053299;28;20036;-58
2022/07/19 05:52:51;;;;;;;4.93;2.40;;;16.70;99.90;;;;;;21062757;28;20338;-58
2022/07/19 06:02:53;;;;;;;4.82;2.70;;;16.90;99.90;;;;;;21011153;28;20036;-58
2022/07/19 06:12:55;;;;;;;3.67;2.97;;;17.00;99.90;;;;;;20977481;28;20079;-54
2022/07/19 06:22:58;;;;;;;4.15;2.60;;;17.40;99.80;;;;;;20977424;28;20114;-55
2022/07/19 06:33:00;;;;;;;4.18;2.40;;;19.30;97.30;;;;;;20976398;28;20032;-56
2022/07/19 06:43:03;;;;;;;4.00;2.42;;;23.30;90.70;;;;;;20976207;28;20036;-59
2022/07/19 06:53:05;;;;;;;2.75;2.40;;;26.20;81.60;;;;;;21057920;28;20043;-59
2022/07/19 07:03:08;;;;;;;3.78;2.60;;;27.80;74.20;;;;;;21057474;28;20362;-57
2022/07/19 07:13:11;;;;;;;3.92;3.50;;;29.40;70.90;;;;;;21056315;28;20574;-60
2022/07/19 07:23:13;;;;;;;5.35;3.47;;;31.40;66.00;;;;;;21039768;28;20041;-60
2022/07/19 07:33:16;;;;;;;6.72;4.22;;;31.50;66.50;;;;;;20970728;28;20082;-60
2022/07/19 07:43:19;;;;;;;6.33;3.87;;;31.60;65.80;;;;;;20970861;28;20036;-60
2022/07/19 07:53:21;;;;;;;4.20;3.90;;;31.40;67.00;;;;;;20970065;28;20405;-62
2022/07/19 08:03:23;;;;;;;4.53;3.92;;;31.50;65.90;;;;;;21043316;28;20036;-61
2022/07/19 08:13:26;;;;;;;4.18;3.78;;;31.40;65.60;;;;;;21051542;28;20068;-61
2022/07/19 08:23:28;;;;;;;5.05;4.55;;;31.10;65.80;;;;;;21051815;28;20078;-61
2022/07/19 08:33:33;;;;;;;5.30;4.68;;;31.30;65.50;;;;;;21050955;28;20039;-61
2022/07/19 08:43:37;;;;;;;6.18;4.97;;;31.00;67.00;;;;;;21045613;28;20028;-61
2022/07/19 08:53:40;;;;;;;5.43;4.93;;;30.70;69.50;;;;;;20966905;28;20058;-61
2022/07/19 09:04:06;;;;;;;6.43;4.60;;;30.60;69.90;;;;;;20958288;28;20114;-62
2022/07/19 09:14:10;;;;;;;5.85;4.18;;;30.70;69.90;;;;;;20944311;28;20102;-61
2022/07/19 09:24:12;;;;;;;5.75;4.47;;;31.30;68.10;;;;;;21002436;28;20028;-61
2022/07/19 09:34:14;;;;;;;9.60;4.15;;;31.50;66.90;;;;;;21064068;28;20040;-61
2022/07/19 09:44:22;;;;;;;9.05;3.85;;;30.80;66.50;;;;;;21063404;28;20353;-61
2022/07/19 09:54:29;;;;;;;5.85;3.60;;;30.90;67.30;;;;;;21062629;28;20140;-61
2022/07/19 10:04:33;;;;;;;5.22;3.47;;;31.40;64.40;;;;;;20978286;28;20485;-61
2022/07/19 10:14:36;;;;;;;6.00;3.53;;;31.20;65.20;;;;;;20977773;28;20048;-62
2022/07/19 10:24:51;;;;;;;5.15;3.28;;;31.60;64.30;;;;;;20976727;28;20102;-61
2022/07/19 10:35:16;;;;;;;4.20;3.45;;;31.40;64.80;;;;;;20974860;28;20482;-62
2022/07/19 10:45:19;;;;;;;5.43;2.50;;;31.80;63.90;;;;;;20994287;28;20355;-61
2022/07/19 10:55:23;;;;;;;5.63;2.95;;;31.30;63.60;;;;;;21058034;28;20032;-62
2022/07/19 11:05:27;;;;;;;3.20;2.92;;;31.70;62.40;;;;;;21040513;28;20027;-61
2022/07/19 11:15:30;;;;;;;4.07;2.83;;;31.80;61.90;;;;;;21056398;28;20397;-60
2022/07/19 11:25:41;;;;;;;3.10;2.78;;;31.80;61.20;;;;;;21018967;28;20032;-61
2022/07/19 11:35:54;;;;;;;3.25;2.78;;;32.10;60.50;;;;;;20971570;28;20146;-61
2022/07/19 11:45:57;;;;;;;4.15;2.85;;;32.20;61.10;;;;;;20970488;28;20037;-61
2022/07/19 11:56:00;;;;;;;4.53;2.75;;;31.80;60.80;;;;;;20982366;28;20078;-62
2022/07/19 12:06:08;;;;;;;3.47;2.60;;;31.40;61.50;;;;;;21053354;28;20036;-62
2022/07/19 12:16:13;;;;;;;3.90;2.53;;;31.80;61.00;;;;;;21051604;28;20660;-58
2022/07/19 12:26:15;;;;;;;3.00;2.70;;;31.80;60.70;;;;;;21051627;28;20089;-62
2022/07/19 12:36:37;;;;;;;5.65;3.10;;;31.70;61.80;;;;;;21051278;28;20928;-62
2022/07/19 12:46:40;;;;;;;7.78;2.92;;;32.10;60.50;;;;;;21020333;28;20433;-59
2022/07/19 12:56:42;;;;;;;4.18;2.70;;;32.20;60.00;;;;;;20989472;28;20477;-62
2022/07/19 13:06:45;;;;;;;3.95;3.20;;;32.80;61.80;;;;;;20994330;28;20086;-62
2022/07/19 13:16:50;;;;;;;5.40;3.05;;;32.90;58.60;;;;;;20993433;28;20143;-62
2022/07/19 13:26:52;;;;;;;5.95;3.45;;;32.70;61.50;;;;;;21042123;28;20035;-63
2022/07/19 13:36:55;;;;;;;6.40;3.67;;;32.70;59.60;;;;;;21059532;28;20417;-63
2022/07/19 13:46:58;;;;;;;5.70;3.50;;;32.80;58.70;;;;;;21076178;28;20040;-63
2022/07/19 13:57:01;;;;;;;5.35;3.42;;;32.90;59.10;;;;;;21053747;28;20074;-63
2022/07/19 14:07:03;;;;;;;4.00;3.60;;;32.60;59.30;;;;;;20980672;28;20093;-64
2022/07/19 14:17:06;;;;;;;6.30;4.30;;;32.70;59.00;;;;;;20977377;28;20045;-64
2022/07/19 14:27:08;;;;;;;5.03;4.32;;;32.70;58.80;;;;;;20977128;28;20090;-63
2022/07/19 14:37:10;;;;;;;4.70;4.18;;;32.80;58.50;;;;;;20976379;28;20037;-63
2022/07/19 14:47:13;;;;;;;4.70;4.20;;;32.70;58.90;;;;;;21010201;28;20032;-63
2022/07/19 14:57:16;;;;;;;8.50;4.00;;;33.00;58.40;;;;;;21054694;28;20429;-63
2022/07/19 15:07:19;;;;;;;5.25;3.80;;;33.20;58.90;;;;;;20952447;28;20036;-63
2022/07/19 15:17:21;;;;;;;4.65;4.05;;;33.70;58.30;;;;;;20978971;28;20129;-63
2022/07/19 15:27:23;;;;;;;4.70;3.47;;;33.80;57.90;;;;;;20971972;28;20044;-64
2022/07/19 15:37:27;;;;;;;5.13;3.60;;;33.70;58.40;;;;;;20971146;28;20173;-63
2022/07/19 15:47:30;;;;;;;4.35;3.88;;;33.50;58.40;;;;;;20970433;28;20081;-63
2022/07/19 15:57:34;;;;;;;6.70;3.65;;;33.20;58.40;;;;;;20995776;28;20093;-63
2022/07/19 16:07:38;;;;;;;4.00;3.60;;;32.80;59.20;;;;;;21053446;28;20085;-64
2022/07/19 16:17:42;;;;;;;5.75;4.15;;;32.00;59.90;;;;;;20999026;28;20074;-63
2022/07/19 16:27:46;;;;;;;4.93;2.70;;;29.70;62.80;;;;;;20986570;28;20040;-62
2022/07/19 16:37:49;;;;;;;3.85;2.55;;;27.90;66.90;;;;;;21013502;28;20036;-61
2022/07/19 16:47:53;;;;;;;4.72;3.10;;;27.00;67.80;;;;;;21050388;28;20055;-61
2022/07/19 16:57:56;;;;;;;3.53;3.20;;;26.00;69.80;;;;;;21066419;28;20081;-61
2022/07/19 17:07:59;;;;;;;5.90;3.80;;;24.70;72.40;;;;;;21032817;28;20032;-61
2022/07/19 17:18:02;;;;;;;37.33;5.30;;;23.20;77.10;;;;;;20971733;28;20057;-59
2022/07/19 17:28:06;;;;;;;7.00;3.42;;;22.80;78.90;;;;;;20965564;28;20086;-60
2022/07/19 17:38:08;;;;;;;5.47;3.15;;;22.10;80.40;;;;;;20970582;28;20033;-60
2022/07/19 17:48:12;;;;;;;8.30;3.30;;;21.60;82.40;;;;;;21017668;28;20404;-60
2022/07/19 17:58:15;;;;;;;5.03;3.40;;;21.20;83.20;;;;;;21062550;28;20040;-60
2022/07/19 18:08:18;;;;;;;5.32;3.22;;;20.90;84.40;;;;;;21078826;28;20036;-60
2022/07/19 18:18:21;;;;;;;4.47;3.20;;;20.60;84.80;;;;;;21061099;28;20089;-60
2022/07/19 18:28:24;;;;;;;6.30;3.25;;;20.30;85.80;;;;;;21060819;28;20439;-60
2022/07/19 18:38:27;;;;;;;10.90;6.20;;;20.00;87.00;;;;;;21059793;28;20040;-59
2022/07/19 18:48:31;;;;;;;6.68;3.90;;;19.80;88.00;;;;;;21029477;28;20067;-60
2022/07/19 18:58:35;;;;;;;4.55;3.17;;;19.30;89.10;;;;;;20974464;28;20485;-60
2022/07/19 19:08:38;;;;;;;4.63;2.92;;;18.90;90.50;;;;;;20973720;28;20078;-60
2022/07/19 19:18:41;;;;;;;4.47;3.17;;;18.60;90.80;;;;;;20969788;28;20071;-59
2022/07/19 19:28:43;;;;;;;5.22;3.47;;;18.30;91.40;;;;;;20969442;28;20089;-60
2022/07/19 19:38:46;;;;;;;6.47;2.80;;;18.20;91.90;;;;;;20969397;28;20040;-59
2022/07/19 19:48:49;;;;;;;5.75;2.78;;;18.00;92.40;;;;;;21011573;28;20031;-59
2022/07/19 19:58:53;;;;;;;5.90;3.25;;;18.10;93.20;;;;;;21050665;28;20408;-60
2022/07/19 20:08:56;;;;;;;7.40;3.20;;;18.20;93.90;;;;;;21053119;28;20054;-59
2022/07/19 20:18:59;;;;;;;8.00;3.80;;;18.40;94.30;;;;;;21051496;28;20044;-60
2022/07/19 20:29:03;;;;;;;7.07;4.10;;;18.20;95.10;;;;;;21042183;28;20098;-60
2022/07/19 20:39:06;;;;;;;4.63;3.13;;;17.90;95.90;;;;;;20961677;28;20456;-59
2022/07/19 20:49:10;;;;;;;7.10;3.97;;;17.70;96.70;;;;;;21016641;28;20101;-67
2022/07/19 20:59:14;;;;;;;5.50;3.67;;;17.60;97.50;;;;;;21045142;28;20090;-67
2022/07/19 21:09:17;;;;;;;6.25;3.30;;;17.40;98.00;;;;;;21031699;28;20077;-67
2022/07/19 21:19:19;;;;;;;5.28;3.33;;;17.20;99.00;;;;;;21064517;28;20032;-68
2022/07/19 21:29:24;;;;;;;4.47;3.83;;;17.00;99.80;;;;;;21064092;28;20035;-68
2022/07/19 21:39:27;;;;;;;5.78;3.50;;;16.90;99.90;;;;;;21063556;28;20032;-65
2022/07/19 21:49:29;;;;;;;6.32;3.42;;;16.80;99.90;;;;;;20964580;28;20551;-66
2022/07/19 21:59:33;;;;;;;7.03;3.65;;;16.80;99.90;;;;;;20896667;28;20106;-67
2022/07/19 22:09:36;;;;;;;4.03;3.30;;;16.70;99.90;;;;;;20894042;28;20032;-66
2022/07/19 22:19:38;;;;;;;7.72;4.60;;;16.60;99.90;;;;;;20894565;28;20041;-58
2022/07/19 22:29:41;;;;;;;3.92;3.47;;;16.80;99.90;;;;;;20893496;28;20041;-59
2022/07/19 22:39:43;;;;;;;4.40;3.53;;;16.70;99.90;;;;;;20893606;28;20032;-59
2022/07/19 22:49:45;;;;;;;4.45;4.05;;;16.70;99.90;;;;;;20948305;28;20029;-59
2022/07/19 22:59:48;;;;;;;6.43;4.00;;;16.70;99.90;;;;;;20974961;28;20037;-59
2022/07/19 23:09:51;;;;;;;6.28;4.32;;;16.70;99.90;;;;;;20974075;28;20472;-59
2022/07/19 23:19:53;;;;;;;7.38;4.40;;;16.80;99.90;;;;;;20974358;28;20483;-59
2022/07/19 23:29:55;;;;;;;6.22;4.47;;;16.80;99.90;;;;;;20972473;28;20639;-59
2022/07/19 23:39:58;;;;;;;6.93;4.10;;;16.80;99.90;;;;;;20971351;28;20033;-58
2022/07/19 23:50:00;;;;;;;6.60;4.22;;;16.60;99.90;;;;;;20970913;28;20404;-59
